TFM - Tactical Decision Aid (Experimental) INFO Settings

ID: Runway Winds: CIG/VIS Threshold: METAR Board: Map:

KDFW - Dallas/Fort Worth Intl

Updated at: 1527 UTC 01 Jul 2015
Latest TAF at: 1516 UTC 01 Jul 2015

TAF Board

Time1453Z01/16Z01/17Z01/18Z01/19Z01/20Z01/21Z01/22Z01/23Z02/00Z02/01Z02/02Z02/03Z02/04Z
TypeOBSPRVLPRVLPRVLPRVLPRVLPRVLPRVLPRVLPRVLPRVLPRVLPRVLPRVL
VIS9>6>6>6>6>6>6>6>6>6>6>6>6>6
CIG300300300300300300300300300300300300300300
CoverBKNBKNBKNBKNBKNBKNBKNBKNBKNBKNBKNBKNBKNBKN
FltCatVFRVFRVFRVFRVFRVFRVFRVFRVFRVFRVFRVFRVFRVFR
WX----------------------------
WDir230200200200200200200200200200200200200200
WSpd1215151515151515151515151515
WGst----------------------------
TAF
KDFW 011516Z 0115/0218 20015KT P6SM SCT050 BKN300

METAR
KDFW 011453Z 23012KT 9SM FEW025 BKN300 28/20 A3001 RMK AO2 SLP152 T02830200 51007

TAF/METAR Board Legend

Potential Impact
  None Marginal Slight Moderate High
Visibility (sm) >5 3≤X≤5 1≤X<3 0.5≤X<1 <0.5
Ceiling (100 ft) >30 10≤X≤30 4≤X<10 2≤X<4 <2
Wind Speed (kt) <10 10≤X<20 20≤X<30 ≥30
Wind Gust (kt) <15 15≤X<25 25≤X<35 ≥35
Weather No Wx Reported VCTS -TS,-FZRA TS,FZRA +TS,+FZRA